Portada
METAR-TAF:

METAR-TAF

Aeroports :

Komatsu, Japó

latitud: 36-23N, longitud: 136-25E, altitud: 6 m

Observació

L'informe es va fer fa 32 minuts, a les 00:00 UTC
Vent 2 kt amb direcció variable
Temperatura 5°C
Humitat 81%
Pressió 1025 hPa
Visibilitat 10 km o més
Escasses núvols a una alçada de 1000 ft
Núvols disperses a una alçada de 1500 ft
Cel ennuvolat a una alçada de 3000 ft
xàfecs de pluja

METAR: RJNK 210000Z VRB02KT 9999 -SHRA FEW010 SCT015 BKN030 05/02 Q1025

Hora: 09:32 (00:32 UTC)

Pronòstic

L'informe es va fer fa 1 hora i 22 minuts, a les 23:10 UTC
Pronòstic vàlid del 21 a les 00 UTC al 22 a les 06 UTC
Vent 8 kt del Nord
Visibilitat 10 km o més
Escasses núvols a una alçada de 1500 ft
Cel ennuvolat a una alçada de 3000 ft
Evolucionant progressivament
l' 22 a les 00 UTC al 22 a les 03 UTC
Vent 4 kt del Oest

TAF: RJNK 202310Z 2100/2206 01008KT 9999 FEW015 BKN030 BECMG 2200/2203 26004KT

Observacions i pronòstics meteorològics de més de 4000 aeroports (METAR i TAF).

Les estacions disponibles són els punts grocs i vermells al mapa.

Posi el ratolí al punt desitjat per veure el nom de l'estació.

Feu clic per veure les observacions i els pronòstics meteorològics.

Per canviar el mapa: feu clic els botons verds amb una creu de color negre per apropar; al botó verd amb un guió per allunyar la imatge; o en les fletxes verdes per a mapes adjacents.


METAR-TAF: